sensor_id;sensor_type;location;lat;lon;timestamp;pressure;altitude;pressure_sealevel;temperature;humidity
64675;BME280;51090;51.512;11.332;2023-05-29T00:00:15;99733.59;;;13.88;93.98
64675;BME280;51090;51.512;11.332;2023-05-29T00:02:46;99734.81;;;13.86;94.11
64675;BME280;51090;51.512;11.332;2023-05-29T00:05:13;99730.72;;;13.83;94.38
64675;BME280;51090;51.512;11.332;2023-05-29T00:07:40;99727.41;;;13.81;95.15
64675;BME280;51090;51.512;11.332;2023-05-29T00:10:08;99721.28;;;13.81;96.03
64675;BME280;51090;51.512;11.332;2023-05-29T00:12:37;99720.44;;;13.80;97.64
64675;BME280;51090;51.512;11.332;2023-05-29T00:15:03;99721.47;;;13.79;95.92
64675;BME280;51090;51.512;11.332;2023-05-29T00:17:30;99720.00;;;13.77;96.75
64675;BME280;51090;51.512;11.332;2023-05-29T00:19:59;99726.78;;;13.79;97.90
64675;BME280;51090;51.512;11.332;2023-05-29T00:22:27;99720.44;;;13.80;96.90
64675;BME280;51090;51.512;11.332;2023-05-29T00:24:53;99720.03;;;13.83;99.02
64675;BME280;51090;51.512;11.332;2023-05-29T00:27:19;99711.66;;;13.86;98.17
64675;BME280;51090;51.512;11.332;2023-05-29T00:29:46;99716.97;;;13.86;97.54
64675;BME280;51090;51.512;11.332;2023-05-29T00:32:12;99707.75;;;13.82;97.58
64675;BME280;51090;51.512;11.332;2023-05-29T00:34:38;99711.41;;;13.81;98.05
64675;BME280;51090;51.512;11.332;2023-05-29T00:37:04;99707.75;;;13.82;99.56
64675;BME280;51090;51.512;11.332;2023-05-29T00:39:30;99701.16;;;13.78;98.57
64675;BME280;51090;51.512;11.332;2023-05-29T00:41:56;99715.13;;;13.80;99.54
64675;BME280;51090;51.512;11.332;2023-05-29T00:44:23;99717.16;;;13.78;99.96
64675;BME280;51090;51.512;11.332;2023-05-29T00:46:51;99707.53;;;13.77;100.00
64675;BME280;51090;51.512;11.332;2023-05-29T00:49:22;99713.47;;;13.79;100.00
64675;BME280;51090;51.512;11.332;2023-05-29T00:51:51;99709.78;;;13.80;100.00
64675;BME280;51090;51.512;11.332;2023-05-29T00:54:23;99707.53;;;13.77;100.00
64675;BME280;51090;51.512;11.332;2023-05-29T00:56:52;99704.81;;;13.70;99.33
64675;BME280;51090;51.512;11.332;2023-05-29T00:59:19;99698.22;;;13.66;100.00
64675;BME280;51090;51.512;11.332;2023-05-29T01:01:47;99697.81;;;13.63;100.00
64675;BME280;51090;51.512;11.332;2023-05-29T01:04:16;99695.75;;;13.58;100.00
64675;BME280;51090;51.512;11.332;2023-05-29T01:06:42;99703.72;;;13.52;100.00
64675;BME280;51090;51.512;11.332;2023-05-29T01:09:10;99699.16;;;13.45;100.00
64675;BME280;51090;51.512;11.332;2023-05-29T01:17:45;99707.47;;;13.29;100.00
64675;BME280;51090;51.512;11.332;2023-05-29T01:20:22;99713.75;;;13.21;100.00
64675;BME280;51090;51.512;11.332;2023-05-29T01:26:08;99725.41;;;13.20;100.00
64675;BME280;51090;51.512;11.332;2023-05-29T01:28:48;99729.53;;;13.23;100.00
64675;BME280;51090;51.512;11.332;2023-05-29T01:31:19;99734.03;;;13.22;100.00
64675;BME280;51090;51.512;11.332;2023-05-29T01:33:53;99761.38;;;13.66;100.00
64675;BME280;51090;51.512;11.332;2023-05-29T01:36:19;99737.50;;;13.23;100.00
64675;BME280;51090;51.512;11.332;2023-05-29T01:38:46;99735.31;;;13.26;100.00
64675;BME280;51090;51.512;11.332;2023-05-29T01:41:13;99743.75;;;13.30;100.00
64675;BME280;51090;51.512;11.332;2023-05-29T01:43:40;99741.06;;;13.30;100.00
64675;BME280;51090;51.512;11.332;2023-05-29T01:46:06;99747.03;;;13.32;100.00
64675;BME280;51090;51.512;11.332;2023-05-29T01:48:32;99736.19;;;13.34;100.00
64675;BME280;51090;51.512;11.332;2023-05-29T01:50:59;99742.34;;;13.34;100.00
64675;BME280;51090;51.512;11.332;2023-05-29T01:53:26;99745.81;;;13.35;100.00
64675;BME280;51090;51.512;11.332;2023-05-29T01:55:52;99751.78;;;13.37;100.00
64675;BME280;51090;51.512;11.332;2023-05-29T01:58:18;99755.69;;;13.41;100.00
64675;BME280;51090;51.512;11.332;2023-05-29T02:00:46;99754.88;;;13.40;100.00
64675;BME280;51090;51.512;11.332;2023-05-29T02:03:12;99748.53;;;13.41;100.00
64675;BME280;51090;51.512;11.332;2023-05-29T02:05:38;99776.44;;;13.80;100.00
64675;BME280;51090;51.512;11.332;2023-05-29T02:08:04;99773.41;;;13.90;100.00
64675;BME280;51090;51.512;11.332;2023-05-29T02:10:31;99760.25;;;13.47;100.00
64675;BME280;51090;51.512;11.332;2023-05-29T02:12:57;99758.34;;;13.41;100.00
64675;BME280;51090;51.512;11.332;2023-05-29T02:15:23;99753.22;;;13.39;100.00
64675;BME280;51090;51.512;11.332;2023-05-29T02:17:50;99762.22;;;13.38;100.00
64675;BME280;51090;51.512;11.332;2023-05-29T02:20:17;99766.75;;;13.38;100.00
64675;BME280;51090;51.512;11.332;2023-05-29T02:22:43;99776.16;;;13.34;100.00
64675;BME280;51090;51.512;11.332;2023-05-29T02:25:09;99764.03;;;13.31;100.00
64675;BME280;51090;51.512;11.332;2023-05-29T02:27:35;99759.09;;;13.28;100.00
64675;BME280;51090;51.512;11.332;2023-05-29T02:30:01;99771.31;;;13.22;100.00
64675;BME280;51090;51.512;11.332;2023-05-29T02:32:28;99766.38;;;13.19;100.00
64675;BME280;51090;51.512;11.332;2023-05-29T02:34:57;99769.22;;;13.18;100.00
64675;BME280;51090;51.512;11.332;2023-05-29T02:37:23;99770.66;;;13.14;100.00
64675;BME280;51090;51.512;11.332;2023-05-29T02:39:51;99778.56;;;13.07;100.00
64675;BME280;51090;51.512;11.332;2023-05-29T02:42:17;99787.16;;;13.02;100.00
64675;BME280;51090;51.512;11.332;2023-05-29T02:44:43;99779.75;;;12.98;100.00
64675;BME280;51090;51.512;11.332;2023-05-29T02:47:09;99777.91;;;12.98;100.00
64675;BME280;51090;51.512;11.332;2023-05-29T02:49:35;99783.84;;;13.00;100.00
64675;BME280;51090;51.512;11.332;2023-05-29T02:52:01;99787.50;;;12.99;100.00
64675;BME280;51090;51.512;11.332;2023-05-29T02:54:27;99792.03;;;12.99;100.00
64675;BME280;51090;51.512;11.332;2023-05-29T02:56:54;99790.00;;;13.01;100.00
64675;BME280;51090;51.512;11.332;2023-05-29T02:59:20;99783.84;;;13.00;100.00
64675;BME280;51090;51.512;11.332;2023-05-29T03:01:46;99789.19;;;13.00;100.00
64675;BME280;51090;51.512;11.332;2023-05-29T03:04:13;99789.34;;;12.99;100.00
64675;BME280;51090;51.512;11.332;2023-05-29T03:06:39;99790.38;;;12.98;100.00
64675;BME280;51090;51.512;11.332;2023-05-29T03:09:06;99786.44;;;12.94;100.00
64675;BME280;51090;51.512;11.332;2023-05-29T03:11:32;99786.44;;;12.94;100.00
64675;BME280;51090;51.512;11.332;2023-05-29T03:13:59;99791.97;;;12.92;100.00
64675;BME280;51090;51.512;11.332;2023-05-29T03:16:25;99785.00;;;12.91;100.00
64675;BME280;51090;51.512;11.332;2023-05-29T03:18:55;99782.78;;;12.95;100.00
64675;BME280;51090;51.512;11.332;2023-05-29T03:21:21;99789.75;;;12.96;100.00
64675;BME280;51090;51.512;11.332;2023-05-29T03:23:47;99787.91;;;12.96;100.00
64675;BME280;51090;51.512;11.332;2023-05-29T03:26:13;99786.69;;;12.99;100.00
64675;BME280;51090;51.512;11.332;2023-05-29T03:28:40;99783.84;;;13.00;100.00
64675;BME280;51090;51.512;11.332;2023-05-29T03:31:06;99787.16;;;13.02;100.00
64675;BME280;51090;51.512;11.332;2023-05-29T03:33:34;99787.16;;;13.02;100.00
64675;BME280;51090;51.512;11.332;2023-05-29T03:36:00;99794.94;;;13.04;100.00
64675;BME280;51090;51.512;11.332;2023-05-29T03:38:26;99789.81;;;13.02;100.00
64675;BME280;51090;51.512;11.332;2023-05-29T03:40:52;99794.50;;;13.00;100.00
64675;BME280;51090;51.512;11.332;2023-05-29T03:43:18;99786.75;;;13.05;100.00
64675;BME280;51090;51.512;11.332;2023-05-29T03:45:44;99793.72;;;13.06;100.00
64675;BME280;51090;51.512;11.332;2023-05-29T03:48:10;99794.38;;;13.08;100.00
64675;BME280;51090;51.512;11.332;2023-05-29T03:50:36;99798.66;;;13.10;100.00
64675;BME280;51090;51.512;11.332;2023-05-29T03:53:02;99795.00;;;13.11;100.00
64675;BME280;51090;51.512;11.332;2023-05-29T03:55:28;99795.00;;;13.11;100.00
64675;BME280;51090;51.512;11.332;2023-05-29T03:57:54;99792.50;;;13.09;100.00
64675;BME280;51090;51.512;11.332;2023-05-29T04:00:21;99801.72;;;13.06;100.00
64675;BME280;51090;51.512;11.332;2023-05-29T04:02:47;99797.03;;;13.08;100.00
64675;BME280;51090;51.512;11.332;2023-05-29T04:05:14;99801.31;;;13.10;100.00
64675;BME280;51090;51.512;11.332;2023-05-29T04:07:40;99814.47;;;13.11;100.00
64675;BME280;51090;51.512;11.332;2023-05-29T04:10:07;99811.59;;;13.13;100.00
64675;BME280;51090;51.512;11.332;2023-05-29T04:12:33;99816.09;;;13.12;100.00
64675;BME280;51090;51.512;11.332;2023-05-29T04:14:59;99813.88;;;13.16;100.00
64675;BME280;51090;51.512;11.332;2023-05-29T04:17:26;99829.88;;;13.16;100.00
64675;BME280;51090;51.512;11.332;2023-05-29T04:19:52;99825.78;;;13.20;100.00
64675;BME280;51090;51.512;11.332;2023-05-29T04:22:18;99832.03;;;13.27;100.00
64675;BME280;51090;51.512;11.332;2023-05-29T04:24:45;99828.97;;;13.30;100.00
64675;BME280;51090;51.512;11.332;2023-05-29T04:27:11;99832.28;;;13.32;100.00
64675;BME280;51090;51.512;11.332;2023-05-29T04:29:40;99830.88;;;13.36;100.00
64675;BME280;51090;51.512;11.332;2023-05-29T04:32:08;99828.81;;;13.38;100.00
64675;BME280;51090;51.512;11.332;2023-05-29T04:34:35;99834.78;;;13.40;100.00
64675;BME280;51090;51.512;11.332;2023-05-29T04:37:04;99828.25;;;13.43;100.00
64675;BME280;51090;51.512;11.332;2023-05-29T04:39:31;99834.44;;;13.50;100.00
64675;BME280;51090;51.512;11.332;2023-05-29T04:41:58;99821.38;;;13.55;100.00
64675;BME280;51090;51.512;11.332;2023-05-29T04:44:26;99832.50;;;13.65;100.00
64675;BME280;51090;51.512;11.332;2023-05-29T04:46:53;99841.78;;;13.76;100.00
64675;BME280;51090;51.512;11.332;2023-05-29T04:49:19;99845.16;;;13.91;100.00
64675;BME280;51090;51.512;11.332;2023-05-29T04:51:46;99814.41;;;13.89;100.00
64675;BME280;51090;51.512;11.332;2023-05-29T04:54:12;99835.44;;;14.12;100.00
64675;BME280;51090;51.512;11.332;2023-05-29T04:56:38;99831.78;;;14.20;100.00
64675;BME280;51090;51.512;11.332;2023-05-29T04:59:06;99848.44;;;14.28;100.00
64675;BME280;51090;51.512;11.332;2023-05-29T05:01:32;99850.31;;;14.34;100.00
64675;BME280;51090;51.512;11.332;2023-05-29T05:04:02;99857.31;;;14.42;100.00
64675;BME280;51090;51.512;11.332;2023-05-29T05:06:28;99840.50;;;14.48;98.83
64675;BME280;51090;51.512;11.332;2023-05-29T05:08:54;99841.56;;;14.54;97.84
64675;BME280;51090;51.512;11.332;2023-05-29T05:11:22;99845.53;;;14.65;97.72
64675;BME280;51090;51.512;11.332;2023-05-29T05:13:48;99847.38;;;14.71;96.03
64675;BME280;51090;51.512;11.332;2023-05-29T05:16:14;99848.00;;;14.79;95.83
64675;BME280;51090;51.512;11.332;2023-05-29T05:18:40;99846.78;;;14.82;95.88
64675;BME280;51090;51.512;11.332;2023-05-29T05:21:06;99847.63;;;14.96;95.57
64675;BME280;51090;51.512;11.332;2023-05-29T05:23:32;99849.47;;;15.02;94.59
64675;BME280;51090;51.512;11.332;2023-05-29T05:25:58;99852.56;;;15.12;93.64
64675;BME280;51090;51.512;11.332;2023-05-29T05:28:23;99861.41;;;15.19;93.00
64675;BME280;51090;51.512;11.332;2023-05-29T05:30:49;99847.84;;;15.28;92.77
64675;BME280;51090;51.512;11.332;2023-05-29T05:33:15;99855.66;;;15.42;92.52
64675;BME280;51090;51.512;11.332;2023-05-29T05:35:40;99856.50;;;15.50;90.46
64675;BME280;51090;51.512;11.332;2023-05-29T05:38:06;99864.50;;;15.56;89.94
64675;BME280;51090;51.512;11.332;2023-05-29T05:40:33;99862.88;;;15.62;90.04
64675;BME280;51090;51.512;11.332;2023-05-29T05:42:58;99860.81;;;15.71;89.69
64675;BME280;51090;51.512;11.332;2023-05-29T05:45:24;99845.59;;;15.71;88.45
64675;BME280;51090;51.512;11.332;2023-05-29T05:47:50;99849.47;;;15.88;88.00
64675;BME280;51090;51.512;11.332;2023-05-29T05:50:15;99862.22;;;15.93;87.91
64675;BME280;51090;51.512;11.332;2023-05-29T05:52:41;99867.53;;;16.06;87.61
64675;BME280;51090;51.512;11.332;2023-05-29T05:55:07;99865.63;;;16.20;87.15
64675;BME280;51090;51.512;11.332;2023-05-29T05:57:33;99864.81;;;16.20;85.58
64675;BME280;51090;51.512;11.332;2023-05-29T06:00:04;99866.69;;;16.19;85.54
64675;BME280;51090;51.512;11.332;2023-05-29T06:02:33;99875.47;;;16.33;85.39
64675;BME280;51090;51.512;11.332;2023-05-29T06:04:59;99874.66;;;16.32;84.21
64675;BME280;51090;51.512;11.332;2023-05-29T06:07:24;99880.00;;;16.39;84.23
64675;BME280;51090;51.512;11.332;2023-05-29T06:09:53;99858.97;;;16.36;83.99
64675;BME280;51090;51.512;11.332;2023-05-29T06:12:18;99875.38;;;16.60;82.79
64675;BME280;51090;51.512;11.332;2023-05-29T06:14:44;99866.91;;;16.63;81.57
64675;BME280;51090;51.512;11.332;2023-05-29T06:17:10;99867.66;;;16.76;80.82
64675;BME280;51090;51.512;11.332;2023-05-29T06:19:35;99859.63;;;16.83;80.44
64675;BME280;51090;51.512;11.332;2023-05-29T06:22:01;99868.19;;;16.98;80.02
64675;BME280;51090;51.512;11.332;2023-05-29T06:24:27;99871.47;;;17.01;77.14
64675;BME280;51090;51.512;11.332;2023-05-29T06:26:53;99868.78;;;17.01;77.10
64675;BME280;51090;51.512;11.332;2023-05-29T06:29:19;99880.44;;;17.13;76.27
64675;BME280;51090;51.512;11.332;2023-05-29T06:31:45;99886.19;;;17.16;76.40
64675;BME280;51090;51.512;11.332;2023-05-29T06:34:11;99878.91;;;17.24;76.63
64675;BME280;51090;51.512;11.332;2023-05-29T06:36:36;99887.69;;;17.37;75.88
64675;BME280;51090;51.512;11.332;2023-05-29T06:39:02;99887.56;;;17.26;73.65
64675;BME280;51090;51.512;11.332;2023-05-29T06:41:28;99881.84;;;17.15;74.23
64675;BME280;51090;51.512;11.332;2023-05-29T06:43:53;99897.63;;;17.30;75.01
64675;BME280;51090;51.512;11.332;2023-05-29T06:46:19;99896.22;;;17.28;74.75
64675;BME280;51090;51.512;11.332;2023-05-29T06:48:45;99891.78;;;17.40;75.06
64675;BME280;51090;51.512;11.332;2023-05-29T06:51:11;99886.81;;;17.44;74.18
64675;BME280;51090;51.512;11.332;2023-05-29T06:53:38;99886.16;;;17.48;73.90
64675;BME280;51090;51.512;11.332;2023-05-29T06:56:05;99904.81;;;17.61;73.06
64675;BME280;51090;51.512;11.332;2023-05-29T06:58:31;99885.41;;;17.59;71.92
64675;BME280;51090;51.512;11.332;2023-05-29T07:00:57;99900.75;;;17.77;72.42
64675;BME280;51090;51.512;11.332;2023-05-29T07:03:27;99902.50;;;17.90;71.19
64675;BME280;51090;51.512;11.332;2023-05-29T07:05:53;99892.00;;;17.89;69.20
64675;BME280;51090;51.512;11.332;2023-05-29T07:08:19;99908.88;;;17.96;68.39
64675;BME280;51090;51.512;11.332;2023-05-29T07:10:45;99902.19;;;17.80;65.34
64675;BME280;51090;51.512;11.332;2023-05-29T07:13:15;99910.03;;;17.81;67.27
64675;BME280;51090;51.512;11.332;2023-05-29T07:15:41;99912.53;;;17.76;67.19
64675;BME280;51090;51.512;11.332;2023-05-29T07:18:06;99918.50;;;17.78;68.41
64675;BME280;51090;51.512;11.332;2023-05-29T07:20:32;99914.94;;;17.84;66.85
64675;BME280;51090;51.512;11.332;2023-05-29T07:22:58;99915.06;;;17.96;66.39
64675;BME280;51090;51.512;11.332;2023-05-29T07:25:23;99920.50;;;18.08;66.24
64675;BME280;51090;51.512;11.332;2023-05-29T07:27:49;99932.28;;;18.25;65.37
64675;BME280;51090;51.512;11.332;2023-05-29T07:30:15;99939.97;;;18.40;65.23
64675;BME280;51090;51.512;11.332;2023-05-29T07:32:41;99933.66;;;18.53;63.46
64675;BME280;51090;51.512;11.332;2023-05-29T07:35:07;99939.16;;;18.58;62.41
64675;BME280;51090;51.512;11.332;2023-05-29T07:37:34;99928.28;;;18.53;61.97
64675;BME280;51090;51.512;11.332;2023-05-29T07:40:00;99938.09;;;18.59;61.25
64675;BME280;51090;51.512;11.332;2023-05-29T07:42:26;99949.44;;;18.61;60.02
64675;BME280;51090;51.512;11.332;2023-05-29T07:44:52;99948.50;;;18.56;61.49
64675;BME280;51090;51.512;11.332;2023-05-29T07:47:18;99955.03;;;18.60;60.45
64675;BME280;51090;51.512;11.332;2023-05-29T07:49:43;99947.97;;;18.65;60.19
64675;BME280;51090;51.512;11.332;2023-05-29T07:52:09;99946.25;;;18.71;60.87
64675;BME280;51090;51.512;11.332;2023-05-29T07:54:35;99929.84;;;18.79;60.39
64675;BME280;51090;51.512;11.332;2023-05-29T07:57:00;99947.19;;;18.95;60.34
64675;BME280;51090;51.512;11.332;2023-05-29T07:59:28;99947.56;;;18.99;59.71
64675;BME280;51090;51.512;11.332;2023-05-29T08:01:54;99949.56;;;19.03;59.44
64675;BME280;51090;51.512;11.332;2023-05-29T08:04:24;99950.63;;;19.02;57.52
64675;BME280;51090;51.512;11.332;2023-05-29T08:06:50;99947.28;;;19.19;58.80
64675;BME280;51090;51.512;11.332;2023-05-29T08:09:16;99947.09;;;19.32;58.10
64675;BME280;51090;51.512;11.332;2023-05-29T08:11:43;99951.41;;;19.33;58.57
64675;BME280;51090;51.512;11.332;2023-05-29T08:14:11;99938.69;;;19.40;58.28
64675;BME280;51090;51.512;11.332;2023-05-29T08:16:37;99940.31;;;19.41;57.22
64675;BME280;51090;51.512;11.332;2023-05-29T08:19:02;99940.31;;;19.41;58.53
64675;BME280;51090;51.512;11.332;2023-05-29T08:21:30;99954.41;;;19.55;57.39
64675;BME280;51090;51.512;11.332;2023-05-29T08:23:57;99949.47;;;19.52;57.89
64675;BME280;51090;51.512;11.332;2023-05-29T08:26:23;99956.75;;;19.63;58.53
64675;BME280;51090;51.512;11.332;2023-05-29T08:28:49;99960.75;;;19.72;57.05
64675;BME280;51090;51.512;11.332;2023-05-29T08:31:16;99954.09;;;19.75;57.45
64675;BME280;51090;51.512;11.332;2023-05-29T08:33:42;99957.97;;;19.79;57.67
64675;BME280;51090;51.512;11.332;2023-05-29T08:36:08;99970.59;;;19.90;58.41
64675;BME280;51090;51.512;11.332;2023-05-29T08:38:36;99955.63;;;19.83;56.71
64675;BME280;51090;51.512;11.332;2023-05-29T08:41:02;99963.69;;;19.83;57.57
64675;BME280;51090;51.512;11.332;2023-05-29T08:43:31;99967.22;;;19.95;57.52
64675;BME280;51090;51.512;11.332;2023-05-29T08:46:01;99955.66;;;19.94;58.07
64675;BME280;51090;51.512;11.332;2023-05-29T08:48:29;99957.16;;;20.14;58.45
64675;BME280;51090;51.512;11.332;2023-05-29T08:50:57;99979.28;;;20.28;56.09
64675;BME280;51090;51.512;11.332;2023-05-29T08:53:25;99976.56;;;20.39;57.59
64675;BME280;51090;51.512;11.332;2023-05-29T08:55:52;99984.06;;;20.49;56.71
64675;BME280;51090;51.512;11.332;2023-05-29T08:58:20;99971.63;;;20.60;54.93
64675;BME280;51090;51.512;11.332;2023-05-29T09:00:48;99951.25;;;20.52;55.75
64675;BME280;51090;51.512;11.332;2023-05-29T09:03:14;99980.31;;;20.50;55.69
64675;BME280;51090;51.512;11.332;2023-05-29T09:05:40;99974.22;;;20.55;56.84
64675;BME280;51090;51.512;11.332;2023-05-29T09:08:08;99984.63;;;20.51;55.54
64675;BME280;51090;51.512;11.332;2023-05-29T09:10:35;99979.25;;;20.39;56.80
64675;BME280;51090;51.512;11.332;2023-05-29T09:13:01;99977.41;;;20.28;57.69
64675;BME280;51090;51.512;11.332;2023-05-29T09:15:27;99978.81;;;20.07;56.95
64675;BME280;51090;51.512;11.332;2023-05-29T09:17:56;99976.13;;;20.07;56.95
64675;BME280;51090;51.512;11.332;2023-05-29T09:20:23;99966.50;;;20.11;57.67
64675;BME280;51090;51.512;11.332;2023-05-29T09:23:00;99973.31;;;20.26;57.15
64675;BME280;51090;51.512;11.332;2023-05-29T09:25:29;99971.53;;;20.31;56.45
64675;BME280;51090;51.512;11.332;2023-05-29T09:27:59;99978.69;;;20.37;56.94
64675;BME280;51090;51.512;11.332;2023-05-29T09:30:44;99983.13;;;20.08;54.24
64675;BME280;51090;51.512;11.332;2023-05-29T09:33:12;99970.59;;;20.14;56.86
64675;BME280;51090;51.512;11.332;2023-05-29T09:35:39;99980.47;;;20.20;56.97
64675;BME280;51090;51.512;11.332;2023-05-29T09:38:09;99976.44;;;20.34;58.04
64675;BME280;51090;51.512;11.332;2023-05-29T09:40:37;99977.03;;;20.36;56.59
64675;BME280;51090;51.512;11.332;2023-05-29T09:43:10;99975.75;;;20.51;57.45
64675;BME280;51090;51.512;11.332;2023-05-29T09:45:44;99975.63;;;20.45;55.37
64675;BME280;51090;51.512;11.332;2023-05-29T09:48:22;99973.41;;;20.54;57.36
64675;BME280;51090;51.512;11.332;2023-05-29T09:50:49;99978.31;;;20.69;55.89
64675;BME280;51090;51.512;11.332;2023-05-29T09:53:24;99978.81;;;20.54;53.84
64675;BME280;51090;51.512;11.332;2023-05-29T09:55:51;99956.09;;;20.38;54.21
64675;BME280;51090;51.512;11.332;2023-05-29T09:58:19;99982.06;;;20.68;57.24
64675;BME280;51090;51.512;11.332;2023-05-29T10:00:45;99968.25;;;20.93;55.75
64675;BME280;51090;51.512;11.332;2023-05-29T10:03:12;99966.34;;;21.34;55.39
64675;BME280;51090;51.512;11.332;2023-05-29T10:05:40;99968.28;;;21.50;54.67
64675;BME280;51090;51.512;11.332;2023-05-29T10:08:13;99966.31;;;21.46;54.87
64675;BME280;51090;51.512;11.332;2023-05-29T10:11:00;99952.56;;;21.47;52.02
64675;BME280;51090;51.512;11.332;2023-05-29T10:13:38;99968.94;;;21.74;53.34
64675;BME280;51090;51.512;11.332;2023-05-29T10:16:10;99971.53;;;22.03;52.91
64675;BME280;51090;51.512;11.332;2023-05-29T10:18:39;99972.38;;;22.21;52.57
64675;BME280;51090;51.512;11.332;2023-05-29T10:21:08;99976.34;;;22.35;52.45
64675;BME280;51090;51.512;11.332;2023-05-29T10:23:38;99961.84;;;22.41;50.23
64675;BME280;51090;51.512;11.332;2023-05-29T10:26:19;99967.44;;;22.56;50.64
64675;BME280;51090;51.512;11.332;2023-05-29T10:32:27;99957.00;;;22.87;49.17
64675;BME280;51090;51.512;11.332;2023-05-29T10:35:08;99964.84;;;23.11;50.61
64675;BME280;51090;51.512;11.332;2023-05-29T10:40:11;99967.00;;;23.36;50.21
64675;BME280;51090;51.512;11.332;2023-05-29T10:45:09;99968.19;;;23.50;48.61
64675;BME280;51090;51.512;11.332;2023-05-29T10:47:38;99950.44;;;23.32;47.16
64675;BME280;51090;51.512;11.332;2023-05-29T10:50:05;99939.03;;;23.25;48.39
64675;BME280;51090;51.512;11.332;2023-05-29T10:52:34;99950.53;;;23.10;47.84
64675;BME280;51090;51.512;11.332;2023-05-29T10:55:01;99952.84;;;23.01;48.42
64675;BME280;51090;51.512;11.332;2023-05-29T10:57:30;99959.63;;;23.04;48.80
64675;BME280;51090;51.512;11.332;2023-05-29T11:00:06;99935.63;;;22.86;48.23
64675;BME280;51090;51.512;11.332;2023-05-29T11:02:39;99957.78;;;23.04;48.15
64675;BME280;51090;51.512;11.332;2023-05-29T11:05:26;99947.53;;;23.12;45.54
64675;BME280;51090;51.512;11.332;2023-05-29T11:07:59;99940.56;;;23.16;47.35
64675;BME280;51090;51.512;11.332;2023-05-29T11:16:09;99958.84;;;23.31;45.70
64675;BME280;51090;51.512;11.332;2023-05-29T11:18:43;99954.53;;;23.35;45.32
64675;BME280;51090;51.512;11.332;2023-05-29T11:24:26;99944.94;;;23.49;46.36
64675;BME280;51090;51.512;11.332;2023-05-29T11:26:54;99953.81;;;23.44;45.89
64675;BME280;51090;51.512;11.332;2023-05-29T11:29:26;99945.97;;;23.43;45.21
64675;BME280;51090;51.512;11.332;2023-05-29T11:32:02;99946.72;;;23.38;45.73
64675;BME280;51090;51.512;11.332;2023-05-29T11:34:29;99949.13;;;23.35;46.34
64675;BME280;51090;51.512;11.332;2023-05-29T11:37:02;99952.75;;;23.18;46.24
64675;BME280;51090;51.512;11.332;2023-05-29T11:39:29;99936.81;;;23.22;46.82
64675;BME280;51090;51.512;11.332;2023-05-29T11:41:56;99949.81;;;23.52;46.50
64675;BME280;51090;51.512;11.332;2023-05-29T11:44:25;99941.28;;;23.33;45.84
64675;BME280;51090;51.512;11.332;2023-05-29T11:47:05;99952.00;;;23.55;45.57
64675;BME280;51090;51.512;11.332;2023-05-29T11:49:35;99940.41;;;23.60;45.10
64675;BME280;51090;51.512;11.332;2023-05-29T11:52:09;99942.91;;;23.66;45.00
64675;BME280;51090;51.512;11.332;2023-05-29T11:54:36;99950.06;;;23.45;45.24
64675;BME280;51090;51.512;11.332;2023-05-29T11:57:02;99940.94;;;23.57;46.19
64675;BME280;51090;51.512;11.332;2023-05-29T11:59:32;99919.31;;;23.62;45.66
64675;BME280;51090;51.512;11.332;2023-05-29T12:02:01;99936.97;;;24.07;45.86
64675;BME280;51090;51.512;11.332;2023-05-29T12:04:28;99938.41;;;24.20;45.34
64675;BME280;51090;51.512;11.332;2023-05-29T12:06:53;99921.59;;;24.12;44.63
64675;BME280;51090;51.512;11.332;2023-05-29T12:09:27;99933.41;;;24.01;43.79
64675;BME280;51090;51.512;11.332;2023-05-29T12:12:03;99928.56;;;24.03;42.42
64675;BME280;51090;51.512;11.332;2023-05-29T12:14:29;99926.63;;;23.99;44.16
64675;BME280;51090;51.512;11.332;2023-05-29T12:16:55;99923.19;;;24.08;44.72
64675;BME280;51090;51.512;11.332;2023-05-29T12:19:21;99929.44;;;24.14;43.71
64675;BME280;51090;51.512;11.332;2023-05-29T12:21:46;99925.13;;;24.18;43.59
64675;BME280;51090;51.512;11.332;2023-05-29T12:24:12;99929.88;;;24.43;44.08
64675;BME280;51090;51.512;11.332;2023-05-29T12:26:42;99919.16;;;24.74;42.74
64675;BME280;51090;51.512;11.332;2023-05-29T12:29:07;99920.03;;;25.00;42.95
64675;BME280;51090;51.512;11.332;2023-05-29T12:31:33;99926.75;;;24.77;41.48
64675;BME280;51090;51.512;11.332;2023-05-29T12:34:09;99930.03;;;24.21;42.24
64675;BME280;51090;51.512;11.332;2023-05-29T12:36:35;99940.88;;;24.26;44.56
64675;BME280;51090;51.512;11.332;2023-05-29T12:39:07;99930.44;;;24.45;43.67
64675;BME280;51090;51.512;11.332;2023-05-29T12:41:35;99939.53;;;24.76;43.94
64675;BME280;51090;51.512;11.332;2023-05-29T12:44:04;99932.00;;;25.14;42.95
64675;BME280;51090;51.512;11.332;2023-05-29T12:46:39;99924.94;;;25.13;40.33
64675;BME280;51090;51.512;11.332;2023-05-29T12:49:15;99935.78;;;24.98;40.16
64675;BME280;51090;51.512;11.332;2023-05-29T12:51:44;99930.88;;;24.90;41.28
64675;BME280;51090;51.512;11.332;2023-05-29T12:54:11;99921.94;;;24.89;40.38
64675;BME280;51090;51.512;11.332;2023-05-29T12:56:38;99924.59;;;24.79;40.97
64675;BME280;51090;51.512;11.332;2023-05-29T12:59:07;99935.03;;;25.23;41.32
64675;BME280;51090;51.512;11.332;2023-05-29T13:01:33;99931.72;;;25.06;41.45
64675;BME280;51090;51.512;11.332;2023-05-29T13:03:59;99934.53;;;24.58;41.46
64675;BME280;51090;51.512;11.332;2023-05-29T13:06:25;99929.38;;;24.51;42.57
64675;BME280;51090;51.512;11.332;2023-05-29T13:08:51;99931.84;;;24.58;42.61
64675;BME280;51090;51.512;11.332;2023-05-29T13:11:17;99932.22;;;24.87;42.41
64675;BME280;51090;51.512;11.332;2023-05-29T13:13:43;99929.53;;;25.03;41.63
64675;BME280;51090;51.512;11.332;2023-05-29T13:16:09;99927.69;;;25.18;42.96